Time;durP1;ratioP1;P1;durP2;ratioP2;P2;SDS_P1;SDS_P2;PMS_P1;PMS_P2;Temp;Humidity;BMP_temperature;BMP_pressure;BME280_temperature;BME280_humidity;BME280_pressure;Samples;Min_cycle;Max_cycle;Signal;HPM_P1;HPM_P2
2023/07/07 00:00:03;;;;;;;10.80;7.40;;;;;;;12.35;88.04;101833.50;6222754;22;20003;-72
2023/07/07 00:02:28;;;;;;;7.60;6.75;;;;;;;12.27;88.58;101837.00;6221694;22;20012;-72
2023/07/07 00:04:54;;;;;;;10.50;7.07;;;;;;;12.21;89.02;101836.16;6197191;22;20517;-72
2023/07/07 00:07:20;;;;;;;8.80;7.15;;;;;;;12.26;88.35;101844.91;6221831;22;20012;-72
2023/07/07 00:09:46;;;;;;;9.13;7.47;;;;;;;12.17;89.48;101837.03;6197241;22;20008;-72
2023/07/07 00:12:13;;;;;;;10.07;8.30;;;;;;;12.16;90.16;101840.56;6247131;22;20007;-72
2023/07/07 00:14:39;;;;;;;8.18;7.22;;;;;;;12.11;89.55;101841.44;6246916;22;19999;-72
2023/07/07 00:17:05;;;;;;;10.18;7.95;;;;;;;12.09;90.54;101844.94;6196538;22;20008;-73
2023/07/07 00:19:32;;;;;;;11.20;7.97;;;;;;;12.12;90.29;101842.31;6221842;22;20003;-73
2023/07/07 00:21:59;;;;;;;11.48;8.18;;;;;;;12.08;90.49;101843.19;6247726;22;20447;-73
2023/07/07 00:24:25;;;;;;;10.57;8.88;;;;;;;12.00;91.02;101845.84;6220709;22;20003;-72
2023/07/07 00:26:51;;;;;;;10.90;8.80;;;;;;;12.03;91.00;101843.19;6197275;22;20119;-72
2023/07/07 00:29:17;;;;;;;10.88;9.07;;;;;;;12.08;91.14;101845.81;6222012;22;20098;-72
2023/07/07 00:31:42;;;;;;;11.07;9.30;;;;;;;12.09;90.91;101835.28;6246876;22;20242;-73
2023/07/07 00:34:08;;;;;;;10.15;9.07;;;;;;;12.09;90.36;101843.19;6195740;22;20291;-73
2023/07/07 00:36:33;;;;;;;11.32;9.05;;;;;;;12.11;90.57;101838.81;6197395;22;20035;-73
2023/07/07 00:38:59;;;;;;;13.00;9.82;;;;;;;12.13;90.39;101837.03;6221740;22;20008;-73
2023/07/07 00:41:24;;;;;;;12.15;9.82;;;;;;;12.09;90.34;101832.66;6197232;22;20011;-69
2023/07/07 00:44:11;;;;;;;13.35;9.98;;;;;;;12.18;90.46;101837.03;6196701;22;20008;-68
2023/07/07 00:46:38;;;;;;;12.45;9.98;;;;;;;12.08;90.47;101837.94;6245594;22;20051;-68
2023/07/07 00:49:09;;;;;;;11.63;9.13;;;;;;;12.10;90.73;101844.94;6247230;22;20073;-68
2023/07/07 00:51:38;;;;;;;12.57;10.52;;;;;;;12.16;90.51;101844.06;6247403;22;20015;-68
2023/07/07 00:54:14;;;;;;;13.80;10.00;;;;;;;12.22;90.19;101838.78;6245904;22;20053;-68
2023/07/07 00:56:47;;;;;;;14.68;10.18;;;;;;;12.20;89.55;101842.31;6247333;22;20364;-68
2023/07/07 00:59:20;;;;;;;12.75;9.48;;;;;;;12.19;90.07;101837.91;6247262;22;20320;-68
2023/07/07 01:01:47;;;;;;;13.25;9.60;;;;;;;12.18;89.69;101838.78;6246606;22;20008;-68
2023/07/07 01:04:16;;;;;;;10.23;8.80;;;;;;;12.18;89.18;101846.66;6246894;22;20286;-68
2023/07/07 01:06:47;;;;;;;11.90;9.55;;;;;;;12.13;88.84;101836.19;6246296;22;20274;-68
2023/07/07 01:09:13;;;;;;;11.38;9.32;;;;;;;12.16;88.39;101846.69;6245868;22;20325;-69
2023/07/07 01:11:38;;;;;;;10.95;9.55;;;;;;;12.28;88.18;101844.03;6246964;22;20003;-68
2023/07/07 01:14:18;;;;;;;11.75;9.13;;;;;;;12.15;87.44;101846.69;6246470;22;20008;-73
2023/07/07 01:16:51;;;;;;;10.13;8.70;;;;;;;12.23;87.71;101847.56;6246483;22;20011;-73
2023/07/07 01:19:35;;;;;;;10.52;9.43;;;;;;;12.11;87.18;101848.44;6246498;22;20367;-72
2023/07/07 01:22:36;;;;;;;11.88;10.05;;;;;;;12.21;87.42;101844.03;6246826;22;20066;-72
2023/07/07 01:25:28;;;;;;;12.77;9.52;;;;;;;12.24;88.07;101844.03;6200888;22;20174;-73
2023/07/07 01:28:12;;;;;;;11.23;9.75;;;;;;;12.29;87.59;101848.38;6246384;22;20015;-73
2023/07/07 01:30:43;;;;;;;11.38;10.07;;;;;;;12.32;87.75;101844.88;6246822;22;20011;-73
2023/07/07 01:33:13;;;;;;;11.68;9.73;;;;;;;12.23;87.76;101848.41;6246348;22;20011;-72
2023/07/07 01:35:38;;;;;;;11.68;8.52;;;;;;;12.21;86.28;101847.56;6246641;22;20007;-73
2023/07/07 01:38:05;;;;;;;9.20;7.90;;;;;;;12.16;86.71;101845.81;6246213;22;20042;-72
2023/07/07 01:40:40;;;;;;;10.85;9.75;;;;;;;12.18;86.55;101849.31;6222110;22;20038;-72
2023/07/07 01:43:17;;;;;;;12.93;9.43;;;;;;;12.18;86.33;101850.16;6246756;22;20091;-72
2023/07/07 01:46:09;;;;;;;11.00;8.82;;;;;;;12.21;86.26;101838.78;6245929;22;20014;-72
2023/07/07 01:48:48;;;;;;;8.82;7.93;;;;;;;12.06;86.13;101837.94;6246876;22;20396;-72
2023/07/07 01:51:17;;;;;;;10.10;7.82;;;;;;;12.03;86.26;101842.34;6246806;22;20066;-72
2023/07/07 01:53:45;;;;;;;9.48;8.45;;;;;;;12.02;86.38;101846.69;6246347;22;20125;-71
2023/07/07 01:56:14;;;;;;;8.55;7.68;;;;;;;11.94;86.23;101845.84;6245717;22;20012;-72
2023/07/07 01:58:41;;;;;;;9.63;8.63;;;;;;;11.89;86.32;101839.69;6246830;22;20024;-72
2023/07/07 02:01:06;;;;;;;8.77;7.88;;;;;;;11.86;85.88;101850.19;6220543;22;20095;-72
2023/07/07 02:03:31;;;;;;;9.85;7.18;;;;;;;11.78;85.54;101837.94;6221659;22;20391;-72
2023/07/07 02:05:57;;;;;;;8.80;7.57;;;;;;;11.70;85.79;101842.31;6195312;22;20110;-72
2023/07/07 02:08:22;;;;;;;10.13;8.05;;;;;;;11.77;85.61;101841.44;6195843;22;20098;-72
2023/07/07 02:10:48;;;;;;;9.00;7.80;;;;;;;11.68;86.63;101837.94;6196131;22;20170;-72
2023/07/07 02:13:13;;;;;;;9.88;8.57;;;;;;;11.67;86.12;101829.19;6196344;22;20299;-72
2023/07/07 02:15:39;;;;;;;9.23;8.32;;;;;;;11.61;87.02;101840.56;6245546;22;20284;-72
2023/07/07 02:18:04;;;;;;;10.48;7.60;;;;;;;11.62;86.01;101830.94;6246387;22;20028;-72
2023/07/07 02:20:31;;;;;;;9.35;8.23;;;;;;;11.43;85.88;101830.97;6221123;22;20011;-72
2023/07/07 02:22:56;;;;;;;7.47;6.68;;;;;;;11.32;85.76;101840.56;6245707;22;20344;-72
2023/07/07 02:25:22;;;;;;;10.38;8.85;;;;;;;11.32;87.21;101832.72;6195728;22;20007;-72
2023/07/07 02:27:48;;;;;;;9.52;8.57;;;;;;;11.37;86.87;101836.19;6220878;22;20007;-72
2023/07/07 02:30:14;;;;;;;9.75;8.65;;;;;;;11.35;88.26;101837.06;6195835;22;20086;-72
2023/07/07 02:32:39;;;;;;;10.65;8.32;;;;;;;11.39;87.44;101842.34;6245030;22;20084;-72
2023/07/07 02:35:06;;;;;;;10.40;9.38;;;;;;;11.30;88.51;101834.44;6245694;22;20012;-72
2023/07/07 02:37:32;;;;;;;9.65;8.15;;;;;;;11.30;87.66;101831.81;6220442;22;20054;-72
2023/07/07 02:39:57;;;;;;;11.40;8.93;;;;;;;11.13;88.38;101839.66;6246183;22;20309;-72
2023/07/07 02:42:23;;;;;;;11.57;10.27;;;;;;;11.03;89.58;101844.03;6220827;22;20003;-72
2023/07/07 02:44:48;;;;;;;12.48;9.57;;;;;;;10.94;91.54;101835.25;6220997;22;20502;-72
2023/07/07 02:47:14;;;;;;;11.02;9.50;;;;;;;10.86;92.59;101833.47;6219851;22;20015;-72
2023/07/07 02:49:40;;;;;;;11.82;10.60;;;;;;;10.80;93.44;101837.81;6245838;22;20329;-72
2023/07/07 02:52:06;;;;;;;11.90;10.70;;;;;;;10.84;93.40;101839.59;6195954;22;20007;-72
2023/07/07 02:54:32;;;;;;;14.15;10.18;;;;;;;10.95;92.97;101844.84;6220169;22;20085;-72
2023/07/07 02:56:57;;;;;;;11.52;10.32;;;;;;;10.96;92.31;101846.59;6221123;22;20095;-72
2023/07/07 02:59:23;;;;;;;12.30;9.52;;;;;;;10.97;91.40;101851.84;6197677;22;20007;-72
2023/07/07 03:01:49;;;;;;;12.27;10.60;;;;;;;10.96;91.58;101851.84;6222150;22;20007;-72
2023/07/07 03:04:14;;;;;;;11.85;9.73;;;;;;;10.93;90.53;101855.34;6247812;22;20111;-72
2023/07/07 03:06:40;;;;;;;9.35;8.45;;;;;;;10.66;89.88;101858.72;6222593;22;20035;-72
2023/07/07 03:09:06;;;;;;;10.82;9.82;;;;;;;10.77;90.67;101853.56;6222123;22;20011;-72
2023/07/07 03:11:32;;;;;;;11.32;9.85;;;;;;;10.65;91.67;101852.63;6275510;22;20026;-72
2023/07/07 03:13:58;;;;;;;10.30;9.20;;;;;;;10.61;92.12;101850.84;6247001;22;19999;-72
2023/07/07 03:16:30;;;;;;;9.77;8.77;;;;;;;10.69;90.99;101854.41;6197150;22;20008;-72
2023/07/07 03:19:00;;;;;;;11.20;9.48;;;;;;;10.69;90.84;101862.25;6223627;22;20039;-72
2023/07/07 03:21:27;;;;;;;11.13;9.65;;;;;;;10.74;90.68;101868.38;6248101;22;19999;-72
2023/07/07 03:23:54;;;;;;;12.48;9.93;;;;;;;10.69;91.03;101862.25;6221406;22;20038;-72
2023/07/07 03:26:22;;;;;;;10.65;9.38;;;;;;;10.65;90.67;101860.50;6247715;22;20441;-72
2023/07/07 03:28:47;;;;;;;10.02;8.95;;;;;;;10.52;90.77;101856.94;6247655;22;20003;-72
2023/07/07 03:31:22;;;;;;;12.45;10.88;;;;;;;10.53;92.00;101870.91;6221851;22;20027;-72
2023/07/07 03:33:49;;;;;;;11.80;10.63;;;;;;;10.54;92.78;101864.81;6246789;22;20007;-72
2023/07/07 03:36:15;;;;;;;12.77;10.07;;;;;;;10.51;92.70;101857.78;6247465;22;20008;-72
2023/07/07 03:38:41;;;;;;;13.02;11.73;;;;;;;10.49;93.93;101867.41;6222214;22;20011;-72
2023/07/07 03:41:10;;;;;;;13.30;11.80;;;;;;;10.43;95.03;101861.25;6274959;22;20146;-72
2023/07/07 03:43:37;;;;;;;13.20;11.13;;;;;;;10.42;95.12;101867.38;6247296;22;20374;-72
2023/07/07 03:46:03;;;;;;;13.50;12.10;;;;;;;10.45;95.52;101868.25;6197232;22;20012;-72
2023/07/07 03:48:29;;;;;;;13.20;11.80;;;;;;;10.42;96.35;101862.16;6247617;22;20031;-72
2023/07/07 03:51:00;;;;;;;14.02;11.48;;;;;;;10.28;96.20;101860.25;6247972;22;20019;-72
2023/07/07 03:53:26;;;;;;;;;;;;;;;10.61;93.96;101865.72;6247075;22;20444;-68
2023/07/07 03:55:52;;;;;;;12.98;11.30;;;;;;;10.45;95.43;101862.16;6247414;22;19969;-72
2023/07/07 03:58:18;;;;;;;17.20;11.05;;;;;;;10.54;95.17;101864.81;6222381;22;20426;-72
2023/07/07 04:00:45;;;;;;;13.25;11.07;;;;;;;10.70;95.10;101864.03;6196522;22;20026;-72
2023/07/07 04:03:10;;;;;;;16.70;10.13;;;;;;;10.94;94.02;101861.47;6248005;22;20035;-72
2023/07/07 04:05:47;;;;;;;14.30;8.73;;;;;;;11.21;91.37;101866.78;6222362;22;20082;-72
2023/07/07 04:08:14;;;;;;;15.23;9.23;;;;;;;11.31;90.81;101862.44;6246090;22;20008;-72
2023/07/07 04:10:40;;;;;;;13.30;9.48;;;;;;;11.91;89.16;101864.19;6221993;22;20094;-72
2023/07/07 04:13:08;;;;;;;9.95;8.23;;;;;;;12.24;87.76;101867.66;6221616;22;20409;-72
2023/07/07 04:15:34;;;;;;;14.80;8.70;;;;;;;12.62;85.21;101867.56;6247370;22;20015;-72
2023/07/07 04:17:59;;;;;;;12.10;8.98;;;;;;;12.85;84.61;101869.22;6221384;22;20332;-72
2023/07/07 04:20:26;;;;;;;12.05;9.02;;;;;;;13.18;84.01;101868.16;6222175;22;20075;-72
2023/07/07 04:22:51;;;;;;;9.98;8.13;;;;;;;13.36;82.30;101870.72;6220980;22;20313;-71
2023/07/07 04:25:17;;;;;;;10.55;8.45;;;;;;;13.48;81.05;101878.53;6197230;22;20018;-72
2023/07/07 04:27:44;;;;;;;13.93;8.25;;;;;;;13.92;79.87;101873.78;6246609;22;20031;-72
2023/07/07 04:30:10;;;;;;;16.95;8.73;;;;;;;14.20;78.77;101885.78;6222250;22;20042;-72
2023/07/07 04:32:37;;;;;;;13.32;8.43;;;;;;;14.60;77.32;101879.22;6244802;22;20029;-72
2023/07/07 04:35:03;;;;;;;12.68;8.65;;;;;;;15.25;75.84;101879.25;6221667;22;20091;-72
2023/07/07 04:37:30;;;;;;;14.60;9.05;;;;;;;15.74;72.53;101892.59;6245760;22;20099;-72
2023/07/07 04:39:56;;;;;;;12.55;8.77;;;;;;;16.02;72.09;101889.50;6222271;22;20350;-72
2023/07/07 04:42:21;;;;;;;14.15;7.45;;;;;;;16.38;71.17;101881.81;6195765;22;20123;-72
2023/07/07 04:44:47;;;;;;;10.73;7.95;;;;;;;16.88;69.56;101879.94;6221956;22;20143;-72
2023/07/07 04:47:12;;;;;;;10.40;8.05;;;;;;;17.13;68.04;101884.69;6196006;22;20330;-72
2023/07/07 04:49:38;;;;;;;19.48;8.40;;;;;;;17.53;66.73;101883.75;6221964;22;20003;-72
2023/07/07 04:52:03;;;;;;;12.00;7.82;;;;;;;17.73;65.50;101874.41;6196387;22;20029;-72
2023/07/07 04:54:29;;;;;;;10.63;8.50;;;;;;;18.11;64.24;101876.09;6220919;22;20115;-72
2023/07/07 04:56:54;;;;;;;9.40;7.45;;;;;;;18.45;62.45;101875.19;6220590;22;20103;-72
2023/07/07 04:59:20;;;;;;;10.52;8.13;;;;;;;18.71;62.89;101876.22;6247132;22;20003;-72
2023/07/07 05:01:45;;;;;;;9.02;7.18;;;;;;;19.04;61.95;101882.31;6195188;22;20015;-72
2023/07/07 05:04:12;;;;;;;12.35;7.78;;;;;;;19.46;60.27;101882.81;6221159;22;20008;-72
2023/07/07 05:06:39;;;;;;;12.52;7.40;;;;;;;19.52;60.25;101885.25;6247001;22;20011;-72
2023/07/07 05:09:06;;;;;;;12.10;7.63;;;;;;;20.25;58.43;101886.34;6220749;22;20035;-72
2023/07/07 05:11:35;;;;;;;10.77;7.72;;;;;;;20.53;55.36;101890.66;6246108;22;20038;-72
2023/07/07 05:14:01;;;;;;;10.40;6.72;;;;;;;20.82;54.54;101878.13;6246849;22;20454;-72
2023/07/07 05:16:33;;;;;;;10.65;7.72;;;;;;;21.01;55.22;101881.78;6221141;22;20186;-72
2023/07/07 05:18:58;;;;;;;11.15;6.90;;;;;;;21.20;56.29;101884.56;6246520;22;20003;-72
2023/07/07 05:21:25;;;;;;;9.88;6.95;;;;;;;21.59;54.26;101894.59;6221357;22;20011;-72
2023/07/07 05:23:54;;;;;;;8.23;6.47;;;;;;;21.96;50.43;101889.50;6245460;22;20466;-72
2023/07/07 05:26:27;;;;;;;10.30;7.00;;;;;;;22.40;51.16;101892.06;6221772;22;20011;-72
2023/07/07 05:28:53;;;;;;;7.80;6.85;;;;;;;22.88;50.33;101883.66;6246531;22;20003;-72
2023/07/07 05:31:20;;;;;;;8.90;6.00;;;;;;;22.81;48.29;101891.97;6245738;22;20021;-71
2023/07/07 05:33:46;;;;;;;10.43;6.68;;;;;;;23.21;51.28;101889.22;6246209;22;20014;-72
2023/07/07 05:36:11;;;;;;;10.13;6.30;;;;;;;23.20;47.64;101897.31;6245072;22;20082;-72
2023/07/07 05:38:39;;;;;;;10.82;6.70;;;;;;;23.05;49.53;101899.75;6219125;22;20038;-69
2023/07/07 05:41:05;;;;;;;7.97;6.70;;;;;;;23.43;47.95;101897.06;6244710;22;20012;-68
2023/07/07 05:43:31;;;;;;;8.98;6.75;;;;;;;23.85;47.46;101889.66;6219677;22;20496;-68
2023/07/07 05:45:58;;;;;;;9.10;6.80;;;;;;;24.27;46.30;101896.41;6219512;22;20015;-68
2023/07/07 05:48:24;;;;;;;8.65;6.85;;;;;;;24.30;45.18;101895.38;6245073;22;20023;-69
2023/07/07 05:50:51;;;;;;;8.13;6.55;;;;;;;24.42;47.26;101900.06;6220638;22;20008;-69
2023/07/07 05:53:16;;;;;;;9.52;6.47;;;;;;;24.83;46.17;101905.03;6245276;22;20053;-68
2023/07/07 05:55:46;;;;;;;8.65;6.43;;;;;;;24.95;45.05;101907.97;6219997;22;20039;-69
2023/07/07 05:58:13;;;;;;;12.27;6.88;;;;;;;25.01;43.84;101897.78;6197575;22;20019;-72
2023/07/07 06:00:39;;;;;;;10.70;6.72;;;;;;;24.94;42.26;101896.41;6221044;22;20338;-72
2023/07/07 06:03:04;;;;;;;7.78;6.40;;;;;;;24.86;43.88;101894.13;6221177;22;20004;-72
2023/07/07 06:05:30;;;;;;;8.60;6.38;;;;;;;24.94;44.63;101906.25;6246081;22;20062;-72
2023/07/07 06:07:55;;;;;;;11.70;6.70;;;;;;;24.90;44.99;101900.19;6193844;22;20337;-72
2023/07/07 06:10:24;;;;;;;8.32;6.50;;;;;;;25.29;44.59;101900.72;6220300;22;20721;-72
2023/07/07 06:12:50;;;;;;;11.00;6.55;;;;;;;25.00;44.95;101900.56;6244264;22;20008;-73
2023/07/07 06:15:16;;;;;;;7.30;6.13;;;;;;;24.78;44.83;101895.50;6245199;22;20369;-72
2023/07/07 06:17:44;;;;;;;9.20;6.47;;;;;;;24.77;46.36;101894.66;6245815;22;20082;-72
2023/07/07 06:20:11;;;;;;;11.68;6.50;;;;;;;24.71;43.28;101897.66;6221034;22;20095;-73
2023/07/07 06:22:36;;;;;;;7.43;5.60;;;;;;;24.83;43.59;101899.66;6219281;22;20039;-72
2023/07/07 06:25:03;;;;;;;9.82;6.32;;;;;;;24.89;44.10;101896.63;6220311;22;20034;-72
2023/07/07 06:27:28;;;;;;;7.20;6.13;;;;;;;25.12;43.61;101891.81;6220127;22;20011;-72
2023/07/07 06:29:54;;;;;;;9.32;6.22;;;;;;;25.38;43.80;101898.38;6195033;22;20388;-72
2023/07/07 06:32:22;;;;;;;8.85;5.45;;;;;;;25.71;44.68;101896.50;6218402;22;20429;-72
2023/07/07 06:34:48;;;;;;;7.38;5.32;;;;;;;26.14;41.82;101910.06;6194632;22;20019;-72
2023/07/07 06:37:13;;;;;;;8.18;5.80;;;;;;;26.39;41.95;101903.19;6219160;22;20008;-72
2023/07/07 06:39:39;;;;;;;8.10;5.47;;;;;;;26.50;42.10;101906.06;6219767;22;20014;-72
2023/07/07 06:42:05;;;;;;;6.93;5.00;;;;;;;26.25;42.31;101910.28;6243718;22;20015;-73
2023/07/07 06:44:30;;;;;;;8.82;5.70;;;;;;;25.67;42.15;101911.06;6192540;22;20355;-72
2023/07/07 06:46:55;;;;;;;7.15;5.53;;;;;;;25.09;43.42;101905.38;6220112;22;20047;-72
2023/07/07 06:49:21;;;;;;;8.30;5.05;;;;;;;24.48;42.64;101910.47;6194606;22;20008;-72
2023/07/07 06:51:46;;;;;;;6.32;5.00;;;;;;;24.10;46.39;101901.78;6195186;22;20015;-72
2023/07/07 06:54:12;;;;;;;7.10;5.40;;;;;;;23.59;46.75;101905.19;6191825;22;20023;-73
2023/07/07 06:56:37;;;;;;;7.75;5.18;;;;;;;23.13;47.55;101908.31;6195778;22;20014;-72
2023/07/07 06:59:07;;;;;;;6.90;5.22;;;;;;;22.46;48.40;101915.81;6220507;22;20109;-72
2023/07/07 07:01:32;;;;;;;;;;;;;;;22.96;48.47;101905.56;6221029;22;20011;-72
2023/07/07 07:04:00;;;;;;;8.65;5.30;;;;;;;22.07;49.13;101911.25;6245763;22;19919;-72
2023/07/07 07:06:26;;;;;;;8.00;5.00;;;;;;;21.78;50.36;101910.69;6221200;22;20292;-73
2023/07/07 07:08:52;;;;;;;9.85;5.20;;;;;;;21.49;48.69;101905.66;6219847;22;20008;-73
2023/07/07 07:11:17;;;;;;;9.23;5.68;;;;;;;21.37;51.34;101915.03;6220702;22;20018;-73
2023/07/07 07:13:43;;;;;;;8.65;5.60;;;;;;;21.31;52.04;101916.16;6246519;22;20008;-73
2023/07/07 07:16:08;;;;;;;10.20;5.88;;;;;;;21.24;50.63;101909.31;6195387;22;20039;-72
2023/07/07 07:18:35;;;;;;;8.63;5.00;;;;;;;21.24;51.50;101917.31;6220402;22;20093;-73
2023/07/07 07:21:00;;;;;;;8.00;5.65;;;;;;;21.15;51.41;101909.69;6195292;22;20089;-73
2023/07/07 07:23:26;;;;;;;11.10;5.60;;;;;;;21.26;52.89;101911.00;6220479;22;20016;-73
2023/07/07 07:25:51;;;;;;;7.40;5.13;;;;;;;21.30;53.30;101919.75;6221233;22;20050;-72
2023/07/07 07:28:16;;;;;;;10.40;5.90;;;;;;;21.28;53.54;101918.94;6220817;22;20012;-72
2023/07/07 07:30:42;;;;;;;10.73;6.30;;;;;;;21.29;53.05;101920.66;6220117;22;20389;-71
2023/07/07 07:33:19;;;;;;;9.93;6.00;;;;;;;21.26;51.76;101918.13;6220585;22;20090;-71
2023/07/07 07:35:45;;;;;;;9.02;5.80;;;;;;;21.36;53.61;101916.81;6246334;22;20004;-72
2023/07/07 07:38:11;;;;;;;8.77;6.20;;;;;;;21.44;54.90;101920.06;6246401;22;20004;-72
2023/07/07 07:40:39;;;;;;;11.00;6.18;;;;;;;21.43;54.11;101915.69;6196470;22;20018;-72
2023/07/07 07:43:04;;;;;;;9.30;6.18;;;;;;;21.49;54.23;101921.66;6197762;22;20509;-72
2023/07/07 07:45:30;;;;;;;9.38;6.25;;;;;;;21.62;54.81;101926.47;6196533;22;20035;-72
2023/07/07 07:47:56;;;;;;;7.50;5.22;;;;;;;21.48;50.54;101926.16;6197095;22;20027;-72
2023/07/07 07:50:22;;;;;;;7.10;5.07;;;;;;;21.48;49.45;101926.16;6197840;22;20399;-72
2023/07/07 07:52:48;;;;;;;7.90;4.95;;;;;;;21.61;50.23;101926.53;6247158;22;20252;-71
2023/07/07 07:55:14;;;;;;;8.90;4.95;;;;;;;21.56;49.89;101928.53;6222383;22;20015;-72
2023/07/07 07:57:44;;;;;;;10.05;5.25;;;;;;;21.76;54.04;101933.88;6223271;22;20008;-71
2023/07/07 08:00:10;;;;;;;8.98;5.07;;;;;;;21.80;51.87;101926.66;6223379;22;20075;-71
2023/07/07 08:02:37;;;;;;;8.85;5.32;;;;;;;21.79;50.79;101925.78;6196928;22;20018;-72
2023/07/07 08:05:03;;;;;;;8.43;5.15;;;;;;;21.76;50.21;101928.56;6197850;22;20357;-72
2023/07/07 08:07:30;;;;;;;7.88;4.75;;;;;;;21.79;49.53;101932.91;6221975;22;20007;-72
2023/07/07 08:09:55;;;;;;;9.10;4.43;;;;;;;22.03;50.63;101933.69;6222735;22;20012;-72
2023/07/07 08:12:21;;;;;;;9.15;4.28;;;;;;;21.97;47.99;101931.28;6247423;22;20086;-71
2023/07/07 08:14:46;;;;;;;9.25;4.60;;;;;;;22.07;50.33;101935.28;6198088;22;20421;-72
2023/07/07 08:17:13;;;;;;;11.70;5.13;;;;;;;22.13;50.00;101934.16;6198061;22;20016;-72
2023/07/07 08:19:40;;;;;;;7.03;5.10;;;;;;;22.10;49.27;101937.81;6223096;22;20004;-72
2023/07/07 08:22:15;;;;;;;7.85;4.88;;;;;;;22.24;50.38;101939.91;6247805;22;20011;-72
2023/07/07 08:24:43;;;;;;;9.10;4.35;;;;;;;22.41;50.80;101941.88;6247185;22;20003;-72
2023/07/07 08:27:10;;;;;;;7.95;4.13;;;;;;;22.56;50.13;101928.75;6247981;22;20027;-72
2023/07/07 08:29:38;;;;;;;7.55;4.43;;;;;;;22.52;46.95;101935.19;6275234;22;20099;-72
2023/07/07 08:32:04;;;;;;;8.80;4.60;;;;;;;22.65;48.91;101934.53;6222634;22;20061;-72
2023/07/07 08:34:29;;;;;;;6.93;4.13;;;;;;;22.63;49.24;101935.56;6222467;22;20050;-72
2023/07/07 08:36:59;;;;;;;6.63;4.43;;;;;;;22.71;49.66;101938.72;6248085;22;20011;-72
2023/07/07 08:39:26;;;;;;;6.72;4.32;;;;;;;22.89;50.03;101933.50;6198716;22;20003;-72
2023/07/07 08:41:55;;;;;;;5.53;3.85;;;;;;;22.73;46.21;101944.88;6222692;22;20008;-72
2023/07/07 08:44:24;;;;;;;4.82;3.25;;;;;;;22.82;46.38;101932.91;6247684;22;20010;-72
2023/07/07 08:47:08;;;;;;;6.85;4.13;;;;;;;22.97;48.46;101937.56;6247498;22;20472;-72
2023/07/07 08:49:45;;;;;;;4.57;3.35;;;;;;;23.12;49.05;101932.44;6274594;22;20345;-72
2023/07/07 08:52:18;;;;;;;5.80;4.43;;;;;;;23.14;49.32;101934.13;6247360;22;20050;-68
2023/07/07 08:54:56;;;;;;;7.72;4.53;;;;;;;23.26;51.25;101934.44;6247190;22;20115;-68
2023/07/07 08:57:27;;;;;;;6.95;4.57;;;;;;;23.24;50.72;101934.53;6247570;22;20030;-68
2023/07/07 09:00:02;;;;;;;8.32;4.53;;;;;;;23.31;50.06;101933.28;6247951;22;19995;-68
2023/07/07 09:02:39;;;;;;;6.53;3.53;;;;;;;23.35;47.87;101924.19;6245661;22;20011;-68
2023/07/07 09:05:31;;;;;;;7.72;4.00;;;;;;;23.48;49.85;101928.94;6247358;22;20008;-68
2023/07/07 09:08:12;;;;;;;7.70;4.25;;;;;;;23.42;49.00;101930.09;6246395;22;20011;-69
2023/07/07 09:10:55;;;;;;;5.28;3.85;;;;;;;23.46;47.68;101936.16;6248154;22;20024;-68
2023/07/07 09:13:34;;;;;;;8.32;3.90;;;;;;;23.60;48.12;101933.66;6247715;22;20022;-70
2023/07/07 09:16:05;;;;;;;5.13;3.80;;;;;;;23.50;46.99;101933.28;6274634;22;20416;-68
2023/07/07 09:18:39;;;;;;;6.85;3.22;;;;;;;23.63;46.61;101929.97;6246900;22;20333;-68
2023/07/07 09:21:12;;;;;;;5.45;3.45;;;;;;;23.83;47.78;101937.91;6247596;22;20082;-69
2023/07/07 09:23:40;;;;;;;5.28;3.40;;;;;;;23.78;46.53;101934.56;6246978;22;20011;-68
2023/07/07 09:26:25;;;;;;;5.50;2.65;;;;;;;23.86;45.09;101932.41;6222179;22;20134;-68
2023/07/07 09:28:54;;;;;;;4.60;3.05;;;;;;;23.85;46.73;101927.97;6247058;22;20003;-68
2023/07/07 09:31:43;;;;;;;5.90;3.20;;;;;;;23.93;47.91;101924.06;6247209;22;20050;-69
2023/07/07 09:34:14;;;;;;;4.60;2.33;;;;;;;24.06;46.17;101930.50;6247320;22;20278;-68
2023/07/07 09:36:52;;;;;;;4.85;2.38;;;;;;;24.02;43.05;101923.56;6197789;22;20008;-69
2023/07/07 09:39:36;;;;;;;5.60;2.67;;;;;;;23.97;43.01;101926.50;6246819;22;20003;-69
2023/07/07 09:42:23;;;;;;;4.45;2.35;;;;;;;24.08;46.24;101928.63;6247396;22;20003;-69
2023/07/07 09:45:06;;;;;;;3.83;2.10;;;;;;;24.12;43.10;101924.88;6274347;22;20007;-68
2023/07/07 09:48:13;;;;;;;4.45;2.05;;;;;;;24.23;46.59;101926.13;6246595;22;20445;-69
2023/07/07 09:50:47;;;;;;;5.63;2.30;;;;;;;24.15;39.07;101919.34;6213856;22;20348;-69
2023/07/07 09:53:29;;;;;;;4.22;2.17;;;;;;;24.34;41.82;101913.03;6246273;22;20086;-68
2023/07/07 09:55:55;;;;;;;4.28;2.25;;;;;;;24.36;40.80;101911.13;6247310;22;20011;-68
2023/07/07 09:58:27;;;;;;;4.35;1.80;;;;;;;24.37;41.58;101910.19;6222181;22;20003;-68
2023/07/07 10:01:00;;;;;;;4.65;2.28;;;;;;;24.54;40.09;101920.84;6246530;22;20000;-68
2023/07/07 10:03:33;;;;;;;3.83;2.28;;;;;;;24.42;38.83;101904.56;6247410;22;20009;-68
2023/07/07 10:06:01;;;;;;;5.05;2.60;;;;;;;24.47;41.24;101916.78;6247190;22;20031;-69
2023/07/07 10:08:27;;;;;;;5.30;2.17;;;;;;;24.36;40.23;101914.66;6246814;22;20014;-69
2023/07/07 10:11:08;;;;;;;3.00;2.33;;;;;;;24.39;39.25;101909.16;6221636;22;20342;-68
2023/07/07 10:13:33;;;;;;;6.78;2.40;;;;;;;24.57;42.29;101909.09;6274395;22;20007;-69
2023/07/07 10:16:10;;;;;;;5.32;2.20;;;;;;;24.52;40.62;101906.69;6196407;22;20350;-69
2023/07/07 10:18:36;;;;;;;4.47;2.22;;;;;;;24.62;40.69;101890.97;6247172;22;20003;-68
2023/07/07 10:21:05;;;;;;;3.85;1.90;;;;;;;24.81;42.64;101896.22;6246333;22;20027;-69
2023/07/07 10:23:31;;;;;;;5.60;2.28;;;;;;;24.65;37.82;101895.31;6221797;22;20110;-69
2023/07/07 10:25:56;;;;;;;4.38;2.30;;;;;;;24.83;41.26;101893.44;6196739;22;20035;-69
2023/07/07 10:28:24;;;;;;;4.90;2.28;;;;;;;24.69;38.52;101891.53;6246982;22;20011;-72
2023/07/07 10:30:50;;;;;;;3.47;2.15;;;;;;;24.70;39.48;101896.78;6221193;22;20012;-72
2023/07/07 10:33:20;;;;;;;5.93;2.40;;;;;;;24.82;41.17;101883.66;6221586;22;20015;-72
2023/07/07 10:35:45;;;;;;;7.38;2.67;;;;;;;24.97;41.02;101889.97;6247083;22;20003;-72
2023/07/07 10:38:12;;;;;;;3.60;2.30;;;;;;;24.96;38.28;101896.31;6220795;22;20026;-72
2023/07/07 10:40:41;;;;;;;5.18;2.20;;;;;;;24.81;37.89;101874.78;6246607;22;20084;-72
2023/07/07 10:43:11;;;;;;;5.18;2.15;;;;;;;24.92;38.93;101889.38;6246818;22;20004;-72
2023/07/07 10:45:36;;;;;;;4.65;2.05;;;;;;;24.99;38.06;101888.94;6246772;22;20004;-72
2023/07/07 10:48:10;;;;;;;3.72;2.47;;;;;;;24.96;38.41;101889.13;6196243;22;20099;-72
2023/07/07 10:50:54;;;;;;;5.63;2.35;;;;;;;24.88;36.37;101888.69;6246928;22;20003;-72
2023/07/07 10:53:31;;;;;;;4.38;2.05;;;;;;;24.89;36.77;101880.53;6245520;22;20504;-72
2023/07/07 10:56:11;;;;;;;3.60;1.88;;;;;;;24.94;37.16;101879.44;6246911;22;20046;-72
2023/07/07 10:58:52;;;;;;;3.97;2.42;;;;;;;25.05;39.19;101885.91;6246775;22;20061;-72
2023/07/07 11:01:34;;;;;;;4.93;2.35;;;;;;;25.13;38.44;101877.44;6246385;22;20012;-72
2023/07/07 11:04:23;;;;;;;4.30;2.45;;;;;;;25.18;37.16;101872.66;6246848;22;20000;-72
2023/07/07 11:45:09;;;;;;;3.60;2.45;;;;;;;25.53;36.51;101855.50;6249664;22;20026;-69
2023/07/07 11:50:57;;;;;;;5.32;2.33;;;;;;;25.58;34.81;101853.44;6266285;22;20027;-71
2023/07/07 11:53:28;;;;;;;16.00;2.45;;;;;;;25.69;37.25;101844.75;6249235;22;20086;-72
2023/07/07 11:56:16;;;;;;;4.47;2.20;;;;;;;25.77;35.44;101848.69;6248807;22;20026;-72
2023/07/07 11:59:03;;;;;;;3.67;2.20;;;;;;;25.73;35.31;101857.00;6248316;22;20094;-68
2023/07/07 12:01:37;;;;;;;4.80;2.30;;;;;;;25.80;35.98;101858.38;6275651;22;20011;-69
2023/07/07 12:04:26;;;;;;;4.82;2.58;;;;;;;25.88;33.88;101848.03;6248544;22;20007;-68
2023/07/07 12:07:13;;;;;;;4.32;2.58;;;;;;;25.95;34.80;101840.47;6248730;22;20394;-68
2023/07/07 12:10:01;;;;;;;3.80;2.30;;;;;;;26.15;36.34;101839.28;6247567;22;20011;-68
2023/07/07 12:13:13;;;;;;;5.82;2.42;;;;;;;26.23;34.92;101838.78;6247529;22;20004;-72